Time,TemperatureF,DewpointF,PressureIn,WindDirection,WindDirectionDegrees,WindSpeedMPH,WindSpeedGustMPH,Humidity,HourlyPrecipIn,Conditions,Clouds,dailyrainin,SoftwareType,DateUTC
2013-01-18 00:02:00,32.0,28.0,30.26,SW,230,7.0,-999.0,86,-99.99,,,-99.99,,2013-01-18 06:02:00,
2013-01-18 00:12:00,32.0,28.0,30.26,SW,230,7.0,-999.0,86,-99.99,,,-99.99,,2013-01-18 06:12:00,
2013-01-18 00:22:00,34.0,30.0,30.24,SSW,210,8.0,-999.0,86,-99.99,,,-99.99,,2013-01-18 06:22:00,
2013-01-18 00:33:00,34.0,30.0,30.23,SW,220,8.0,-999.0,86,-99.99,,,-99.99,,2013-01-18 06:33:00,
2013-01-18 00:43:00,34.0,30.0,30.23,SW,220,8.0,-999.0,86,-99.99,,,-99.99,,2013-01-18 06:43:00,
2013-01-18 00:53:00,34.0,30.0,30.23,SW,220,8.0,-999.0,86,-99.99,,,-99.99,,2013-01-18 06:53:00,
2013-01-18 01:02:00,34.0,30.0,30.23,SW,220,8.0,-999.0,86,-99.99,,,-99.99,,2013-01-18 07:02:00,
2013-01-18 01:12:00,34.0,30.0,30.23,SW,220,8.0,-999.0,86,-99.99,,,-99.99,,2013-01-18 07:12:00,
2013-01-18 01:22:00,34.0,30.0,30.21,SSW,210,9.0,-999.0,86,-99.99,,,-99.99,,2013-01-18 07:22:00,
2013-01-18 01:33:00,36.0,30.0,30.21,SSW,210,9.0,-999.0,80,-99.99,,,-99.99,,2013-01-18 07:33:00,
2013-01-18 01:42:00,36.0,30.0,30.21,SSW,210,9.0,-999.0,80,-99.99,,,-99.99,,2013-01-18 07:42:00,
2013-01-18 01:52:00,36.0,30.0,30.20,SW,220,10.0,-999.0,80,-99.99,,,-99.99,,2013-01-18 07:52:00,
2013-01-18 02:02:00,36.0,30.0,30.20,SW,220,10.0,-999.0,80,-99.99,,,-99.99,,2013-01-18 08:02:00,
2013-01-18 02:12:00,36.0,30.0,30.20,SW,220,10.0,-999.0,80,-99.99,,,-99.99,,2013-01-18 08:12:00,
2013-01-18 02:22:00,36.0,30.0,30.19,SSW,210,8.0,-999.0,80,-99.99,,,-99.99,,2013-01-18 08:22:00,
2013-01-18 02:32:00,34.0,30.0,30.19,SSW,210,8.0,-999.0,86,-99.99,,,-99.99,,2013-01-18 08:32:00,
2013-01-18 02:43:00,34.0,30.0,30.19,SSW,210,8.0,-999.0,86,-99.99,,,-99.99,,2013-01-18 08:43:00,
2013-01-18 02:53:00,34.0,30.0,30.19,SSW,210,8.0,-999.0,86,-99.99,,,-99.99,,2013-01-18 08:53:00,
2013-01-18 03:02:00,34.0,30.0,30.19,SSW,210,8.0,-999.0,86,-99.99,,,-99.99,,2013-01-18 09:02:00,
2013-01-18 03:12:00,34.0,30.0,30.19,SSW,210,8.0,-999.0,86,-99.99,,,-99.99,,2013-01-18 09:12:00,
2013-01-18 03:22:00,34.0,30.0,30.16,SSW,200,10.0,-999.0,86,-99.99,,,-99.99,,2013-01-18 09:22:00,
2013-01-18 03:33:00,34.0,30.0,30.16,SSW,200,10.0,-999.0,86,-99.99,,,-99.99,,2013-01-18 09:33:00,
2013-01-18 03:43:00,34.0,30.0,30.16,SSW,200,10.0,-999.0,86,-99.99,,,-99.99,,2013-01-18 09:43:00,
2013-01-18 03:53:00,34.0,30.0,30.16,SSW,200,10.0,-999.0,86,-99.99,,,-99.99,,2013-01-18 09:53:00,
2013-01-18 04:02:00,34.0,30.0,30.16,SSW,200,10.0,-999.0,86,-99.99,,,-99.99,,2013-01-18 10:02:00,
2013-01-18 04:22:00,32.0,30.0,30.13,SW,220,7.0,-999.0,92,-99.99,,,-99.99,,2013-01-18 10:22:00,
2013-01-18 04:33:00,30.0,28.0,30.13,SW,220,8.0,-999.0,92,-99.99,,,-99.99,,2013-01-18 10:33:00,
2013-01-18 04:43:00,30.0,28.0,30.13,SW,220,8.0,-999.0,92,-99.99,,,-99.99,,2013-01-18 10:43:00,
2013-01-18 04:53:00,30.0,28.0,30.12,SW,220,9.0,-999.0,92,-99.99,,,-99.99,,2013-01-18 10:53:00,
2013-01-18 05:02:00,30.0,28.0,30.12,SW,220,9.0,-999.0,92,-99.99,,,-99.99,,2013-01-18 11:02:00,
2013-01-18 05:12:00,30.0,28.0,30.12,SW,220,9.0,-999.0,92,-99.99,,,-99.99,,2013-01-18 11:12:00,
2013-01-18 05:22:00,28.0,28.0,30.11,WSW,250,6.0,-999.0,100,-99.99,,,-99.99,,2013-01-18 11:22:00,
2013-01-18 05:32:00,28.0,28.0,30.11,WSW,250,6.0,-999.0,100,-99.99,,,-99.99,,2013-01-18 11:32:00,
2013-01-18 05:42:00,28.0,28.0,30.11,WSW,250,6.0,-999.0,100,-99.99,,,-99.99,,2013-01-18 11:42:00,
2013-01-18 05:53:00,28.0,28.0,30.11,WSW,250,6.0,-999.0,100,-99.99,,,-99.99,,2013-01-18 11:53:00,
2013-01-18 06:02:00,28.0,28.0,30.11,WSW,250,6.0,-999.0,100,-99.99,,,-99.99,,2013-01-18 12:02:00,
2013-01-18 06:23:00,28.0,28.0,30.09,WSW,240,7.0,-999.0,100,-99.99,,,-99.99,,2013-01-18 12:23:00,
2013-01-18 06:33:00,27.0,27.0,30.08,WSW,240,9.0,-999.0,100,-99.99,,,-99.99,,2013-01-18 12:33:00,
2013-01-18 06:43:00,27.0,27.0,30.08,WSW,240,9.0,-999.0,100,-99.99,,,-99.99,,2013-01-18 12:43:00,
2013-01-18 06:53:00,27.0,27.0,30.08,WSW,240,9.0,-999.0,100,-99.99,,,-99.99,,2013-01-18 12:53:00,
2013-01-18 07:03:00,27.0,27.0,30.08,WSW,240,9.0,-999.0,100,-99.99,,,-99.99,,2013-01-18 13:03:00,
2013-01-18 07:12:00,27.0,27.0,30.08,WSW,240,9.0,-999.0,100,-99.99,,,-99.99,,2013-01-18 13:12:00,
2013-01-18 07:23:00,28.0,28.0,30.08,SW,230,10.0,-999.0,100,-99.99,,,-99.99,,2013-01-18 13:23:00,
2013-01-18 07:33:00,27.0,27.0,30.08,WSW,240,8.0,-999.0,100,-99.99,,,-99.99,,2013-01-18 13:33:00,
2013-01-18 07:43:00,27.0,27.0,30.08,WSW,240,8.0,-999.0,100,-99.99,,,-99.99,,2013-01-18 13:43:00,
2013-01-18 07:53:00,27.0,27.0,30.08,WSW,240,8.0,-999.0,100,-99.99,,,-99.99,,2013-01-18 13:53:00,
2013-01-18 08:03:00,27.0,27.0,30.08,WSW,240,8.0,-999.0,100,-99.99,,,-99.99,,2013-01-18 14:03:00,
2013-01-18 08:12:00,27.0,27.0,30.08,WSW,240,8.0,-999.0,100,-99.99,,,-99.99,,2013-01-18 14:12:00,
2013-01-18 08:22:00,27.0,27.0,30.08,SW,220,10.0,-999.0,100,-99.99,,,-99.99,,2013-01-18 14:22:00,
2013-01-18 08:34:00,27.0,27.0,30.08,SW,230,10.0,-999.0,100,-99.99,,,-99.99,,2013-01-18 14:34:00,
2013-01-18 08:43:00,27.0,27.0,30.08,SW,230,10.0,-999.0,100,-99.99,,,-99.99,,2013-01-18 14:43:00,
2013-01-18 08:53:00,27.0,27.0,30.08,SW,230,10.0,-999.0,100,-99.99,,,-99.99,,2013-01-18 14:53:00,
2013-01-18 09:03:00,27.0,27.0,30.08,SW,230,10.0,-999.0,100,-99.99,,,-99.99,,2013-01-18 15:03:00,
2013-01-18 09:12:00,27.0,27.0,30.08,SW,230,10.0,-999.0,100,-99.99,,,-99.99,,2013-01-18 15:12:00,
2013-01-18 09:23:00,30.0,28.0,30.09,SW,230,13.0,-999.0,92,-99.99,,,-99.99,,2013-01-18 15:23:00,
2013-01-18 09:33:00,32.0,30.0,30.08,SW,230,10.0,-999.0,92,-99.99,,,-99.99,,2013-01-18 15:33:00,
2013-01-18 09:43:00,32.0,30.0,30.08,SW,230,10.0,-999.0,92,-99.99,,,-99.99,,2013-01-18 15:43:00,
2013-01-18 09:53:00,32.0,30.0,30.08,SW,230,10.0,-999.0,92,-99.99,,,-99.99,,2013-01-18 15:53:00,
2013-01-18 10:03:00,32.0,30.0,30.08,SW,230,10.0,-999.0,92,-99.99,,,-99.99,,2013-01-18 16:03:00,
2013-01-18 10:12:00,32.0,30.0,30.08,SW,230,10.0,-999.0,92,-99.99,,,-99.99,,2013-01-18 16:12:00,
2013-01-18 10:23:00,36.0,32.0,30.10,WSW,240,12.0,-999.0,86,-99.99,,,-99.99,,2013-01-18 16:23:00,
2013-01-18 10:33:00,36.0,32.0,30.10,WSW,240,12.0,-999.0,86,-99.99,,,-99.99,,2013-01-18 16:33:00,
2013-01-18 10:43:00,36.0,32.0,30.10,WSW,240,12.0,-999.0,86,-99.99,,,-99.99,,2013-01-18 16:43:00,
2013-01-18 10:53:00,37.0,34.0,30.10,WSW,240,12.0,-999.0,86,-99.99,,,-99.99,,2013-01-18 16:53:00,
2013-01-18 11:03:00,37.0,34.0,30.10,WSW,240,12.0,-999.0,86,-99.99,,,-99.99,,2013-01-18 17:03:00,
2013-01-18 11:13:00,37.0,34.0,30.10,WSW,240,12.0,-999.0,86,-99.99,,,-99.99,,2013-01-18 17:13:00,
2013-01-18 11:23:00,43.0,36.0,30.09,SW,230,9.0,-999.0,75,-99.99,,,-99.99,,2013-01-18 17:23:00,
2013-01-18 11:33:00,45.0,36.0,30.08,WSW,250,12.0,-999.0,70,-99.99,,,-99.99,,2013-01-18 17:33:00,
2013-01-18 11:43:00,45.0,36.0,30.08,WSW,250,12.0,-999.0,70,-99.99,,,-99.99,,2013-01-18 17:43:00,
2013-01-18 11:53:00,48.0,36.0,30.07,WSW,250,13.0,-999.0,61,-99.99,,,-99.99,,2013-01-18 17:53:00,
2013-01-18 12:03:00,48.0,36.0,30.07,WSW,250,13.0,-999.0,61,-99.99,,,-99.99,,2013-01-18 18:03:00,
2013-01-18 12:12:00,48.0,36.0,30.07,WSW,250,13.0,-999.0,61,-99.99,,,-99.99,,2013-01-18 18:12:00,
2013-01-18 12:23:00,52.0,34.0,30.05,West,260,12.0,-999.0,50,-99.99,,,-99.99,,2013-01-18 18:23:00,
2013-01-18 12:33:00,52.0,36.0,30.04,West,270,15.0,-999.0,53,-99.99,,,-99.99,,2013-01-18 18:33:00,
2013-01-18 12:43:00,52.0,36.0,30.04,West,270,15.0,-999.0,53,-99.99,,,-99.99,,2013-01-18 18:43:00,
2013-01-18 12:53:00,52.0,36.0,30.04,West,270,15.0,-999.0,53,-99.99,,,-99.99,,2013-01-18 18:53:00,
2013-01-18 13:03:00,52.0,36.0,30.04,West,270,15.0,-999.0,53,-99.99,,,-99.99,,2013-01-18 19:03:00,
2013-01-18 13:12:00,52.0,36.0,30.04,West,270,15.0,-999.0,53,-99.99,,,-99.99,,2013-01-18 19:12:00,
2013-01-18 13:22:00,54.0,36.0,30.02,West,270,13.0,-999.0,50,-99.99,,,-99.99,,2013-01-18 19:22:00,
2013-01-18 13:33:00,55.0,36.0,30.02,West,270,9.0,-999.0,47,-99.99,,,-99.99,,2013-01-18 19:33:00,
2013-01-18 13:43:00,55.0,36.0,30.02,West,270,9.0,-999.0,47,-99.99,,,-99.99,,2013-01-18 19:43:00,
2013-01-18 13:53:00,55.0,36.0,30.01,West,260,14.0,-999.0,47,-99.99,,,-99.99,,2013-01-18 19:53:00,
2013-01-18 14:03:00,55.0,36.0,30.01,West,260,14.0,-999.0,47,-99.99,,,-99.99,,2013-01-18 20:03:00,
2013-01-18 14:12:00,55.0,36.0,30.01,West,260,14.0,-999.0,47,-99.99,,,-99.99,,2013-01-18 20:12:00,
2013-01-18 14:23:00,55.0,36.0,30.00,West,260,12.0,16.0,47,-99.99,,,-99.99,,2013-01-18 20:23:00,
2013-01-18 14:33:00,55.0,36.0,30.00,West,260,10.0,-999.0,47,-99.99,,,-99.99,,2013-01-18 20:33:00,
2013-01-18 14:43:00,55.0,36.0,30.00,West,260,10.0,-999.0,47,-99.99,,,-99.99,,2013-01-18 20:43:00,
2013-01-18 14:53:00,55.0,36.0,30.00,West,260,10.0,-999.0,47,-99.99,,,-99.99,,2013-01-18 20:53:00,
2013-01-18 15:03:00,55.0,36.0,30.00,West,260,10.0,-999.0,47,-99.99,,,-99.99,,2013-01-18 21:03:00,
2013-01-18 15:13:00,55.0,36.0,30.00,West,260,10.0,-999.0,47,-99.99,,,-99.99,,2013-01-18 21:13:00,
2013-01-18 15:22:00,55.0,36.0,30.00,West,270,8.0,-999.0,47,-99.99,,,-99.99,,2013-01-18 21:22:00,
2013-01-18 15:33:00,55.0,37.0,30.00,West,270,8.0,-999.0,50,-99.99,,,-99.99,,2013-01-18 21:33:00,
2013-01-18 15:43:00,55.0,37.0,30.00,West,270,8.0,-999.0,50,-99.99,,,-99.99,,2013-01-18 21:43:00,
2013-01-18 15:53:00,55.0,37.0,30.00,West,270,8.0,-999.0,50,-99.99,,,-99.99,,2013-01-18 21:53:00,
2013-01-18 16:03:00,55.0,37.0,30.00,West,270,8.0,-999.0,50,-99.99,,,-99.99,,2013-01-18 22:03:00,
2013-01-18 16:12:00,55.0,37.0,30.00,West,270,8.0,-999.0,50,-99.99,,,-99.99,,2013-01-18 22:12:00,
2013-01-18 16:22:00,55.0,36.0,29.98,West,260,7.0,-999.0,47,-99.99,,,-99.99,,2013-01-18 22:22:00,
2013-01-18 16:33:00,55.0,37.0,29.98,West,270,5.0,-999.0,50,-99.99,,,-99.99,,2013-01-18 22:33:00,
2013-01-18 16:43:00,55.0,37.0,29.98,West,270,5.0,-999.0,50,-99.99,,,-99.99,,2013-01-18 22:43:00,
2013-01-18 16:53:00,55.0,37.0,29.98,West,270,5.0,-999.0,50,-99.99,,,-99.99,,2013-01-18 22:53:00,
2013-01-18 17:03:00,55.0,37.0,29.98,West,270,5.0,-999.0,50,-99.99,,,-99.99,,2013-01-18 23:03:00,
2013-01-18 17:12:00,55.0,37.0,29.98,West,270,5.0,-999.0,50,-99.99,,,-99.99,,2013-01-18 23:12:00,
2013-01-18 17:22:00,52.0,36.0,29.98,WSW,240,8.0,-999.0,53,-99.99,,,-99.99,,2013-01-18 23:22:00,
2013-01-18 17:33:00,48.0,36.0,29.99,WSW,250,6.0,-999.0,61,-99.99,,,-99.99,,2013-01-18 23:33:00,
2013-01-18 17:43:00,48.0,36.0,29.99,WSW,250,6.0,-999.0,61,-99.99,,,-99.99,,2013-01-18 23:43:00,
2013-01-18 17:53:00,46.0,34.0,29.99,WSW,240,7.0,-999.0,61,-99.99,,,-99.99,,2013-01-18 23:53:00,
2013-01-18 18:02:00,46.0,34.0,29.99,WSW,240,7.0,-999.0,61,-99.99,,,-99.99,,2013-01-19 00:02:00,
2013-01-18 18:12:00,46.0,34.0,29.99,WSW,240,7.0,-999.0,61,-99.99,,,-99.99,,2013-01-19 00:12:00,
2013-01-18 18:22:00,41.0,32.0,29.98,WSW,250,8.0,-999.0,70,-99.99,,,-99.99,,2013-01-19 00:22:00,
2013-01-18 18:32:00,41.0,32.0,29.98,WSW,250,8.0,-999.0,70,-99.99,,,-99.99,,2013-01-19 00:32:00,
2013-01-18 18:43:00,41.0,32.0,29.98,WSW,250,8.0,-999.0,70,-99.99,,,-99.99,,2013-01-19 00:43:00,
2013-01-18 18:53:00,41.0,32.0,29.98,WSW,250,8.0,-999.0,70,-99.99,,,-99.99,,2013-01-19 00:53:00,
2013-01-18 19:02:00,41.0,32.0,29.98,WSW,250,8.0,-999.0,70,-99.99,,,-99.99,,2013-01-19 01:02:00,
2013-01-18 19:23:00,39.0,30.0,29.99,SW,220,8.0,-999.0,69,-99.99,,,-99.99,,2013-01-19 01:23:00,
2013-01-18 19:33:00,37.0,30.0,29.99,WSW,240,5.0,-999.0,74,-99.99,,,-99.99,,2013-01-19 01:33:00,
2013-01-18 19:43:00,37.0,30.0,29.99,WSW,240,5.0,-999.0,74,-99.99,,,-99.99,,2013-01-19 01:43:00,
2013-01-18 19:53:00,37.0,30.0,29.99,WSW,240,5.0,-999.0,74,-99.99,,,-99.99,,2013-01-19 01:53:00,
2013-01-18 20:02:00,37.0,30.0,29.99,WSW,240,5.0,-999.0,74,-99.99,,,-99.99,,2013-01-19 02:02:00,
2013-01-18 20:12:00,37.0,30.0,29.99,WSW,240,5.0,-999.0,74,-99.99,,,-99.99,,2013-01-19 02:12:00,
2013-01-18 20:22:00,36.0,30.0,29.98,WSW,240,6.0,-999.0,80,-99.99,,,-99.99,,2013-01-19 02:22:00,
2013-01-18 20:33:00,36.0,30.0,29.98,SW,220,8.0,-999.0,80,-99.99,,,-99.99,,2013-01-19 02:33:00,
2013-01-18 20:43:00,36.0,30.0,29.98,SW,220,8.0,-999.0,80,-99.99,,,-99.99,,2013-01-19 02:43:00,
2013-01-18 20:53:00,36.0,30.0,29.98,SW,220,8.0,-999.0,80,-99.99,,,-99.99,,2013-01-19 02:53:00,
2013-01-18 21:03:00,36.0,30.0,29.98,SW,220,8.0,-999.0,80,-99.99,,,-99.99,,2013-01-19 03:03:00,
2013-01-18 21:12:00,36.0,30.0,29.98,SW,220,8.0,-999.0,80,-99.99,,,-99.99,,2013-01-19 03:12:00,
2013-01-18 21:22:00,34.0,30.0,29.96,WSW,240,7.0,-999.0,86,-99.99,,,-99.99,,2013-01-19 03:22:00,
2013-01-18 21:33:00,34.0,28.0,29.96,SW,230,8.0,-999.0,80,-99.99,,,-99.99,,2013-01-19 03:33:00,
2013-01-18 21:44:00,34.0,28.0,29.96,SW,230,8.0,-999.0,80,-99.99,,,-99.99,,2013-01-19 03:44:00,
2013-01-18 21:53:00,32.0,28.0,29.96,WSW,240,8.0,-999.0,86,-99.99,,,-99.99,,2013-01-19 03:53:00,
2013-01-18 22:02:00,32.0,28.0,29.96,WSW,240,8.0,-999.0,86,-99.99,,,-99.99,,2013-01-19 04:02:00,
2013-01-18 22:12:00,32.0,28.0,29.96,WSW,240,8.0,-999.0,86,-99.99,,,-99.99,,2013-01-19 04:12:00,
2013-01-18 22:22:00,34.0,30.0,29.97,WSW,250,7.0,-999.0,86,-99.99,,,-99.99,,2013-01-19 04:22:00,
2013-01-18 22:32:00,34.0,30.0,29.96,WSW,250,8.0,-999.0,86,-99.99,,,-99.99,,2013-01-19 04:32:00,
2013-01-18 22:43:00,34.0,30.0,29.96,WSW,250,8.0,-999.0,86,-99.99,,,-99.99,,2013-01-19 04:43:00,
2013-01-18 22:53:00,34.0,28.0,29.96,SW,230,8.0,-999.0,80,-99.99,,,-99.99,,2013-01-19 04:53:00,
2013-01-18 23:03:00,34.0,28.0,29.96,SW,230,8.0,-999.0,80,-99.99,,,-99.99,,2013-01-19 05:03:00,
2013-01-18 23:12:00,34.0,28.0,29.96,SW,230,8.0,-999.0,80,-99.99,,,-99.99,,2013-01-19 05:12:00,
2013-01-18 23:22:00,34.0,30.0,29.96,SW,230,10.0,-999.0,86,-99.99,,,-99.99,,2013-01-19 05:22:00,
2013-01-18 23:32:00,34.0,30.0,29.96,WSW,240,8.0,-999.0,86,-99.99,,,-99.99,,2013-01-19 05:32:00,
2013-01-18 23:43:00,34.0,30.0,29.96,WSW,240,8.0,-999.0,86,-99.99,,,-99.99,,2013-01-19 05:43:00,
2013-01-18 23:53:00,34.0,30.0,29.95,SW,230,10.0,-999.0,86,-99.99,,,-99.99,,2013-01-19 05:53:00,